Airport Information

KRDM - Roberts Fld Airport

KRDM 160756Z AUTO 32005KT 1 1/2SM BR OVC002 M02/M03 A2982 RMK AO2 SLP119 T10221033 400281033


  • General Information

  • Coordinates: N 44°15'14"/ W 121°8'59"
  • Location: N/A
  • Surveyed Elevation: 3077 MSL

Operations

Flow Name Active Runways Conditions

Green background denotes normal operations.


Common Frequencies

Callsign Frequency Position Name

More at the Document Center


Charts